East Sandwich, Massachusetts
Current Conditions -  °F | °C
As of 8:35 PM on Tuesday 27 Jan 2015 (Local Time) from KFMH Reporting Station
Heavy Snow Heavy Snow  
Wind Chill:   Ceiling: 300
Heat Index: 18°   Visibility: 0mi
Dew Point: 14°   Wind: 18mph
Humidity: 86%   Direction: 320°NW
Pressure: 29.52"   Gusts: 26mph
Location:  41.74°N, 70.43°W
Report Text: KFMH 280135Z AUTO 32016G23KT M1/4SM +SN OVC003 M08/M10 A2952 RMK AO2
Loading
Personal Weather Stations






























Interactive Weather Map New forecast layout! Learn more

10-Day Weather Forecast

Advertisements
Track Severe Weather on mobile